sensor_id;sensor_type;location;lat;lon;timestamp;pressure;altitude;pressure_sealevel;temperature;humidity
55347;BME280;41218;55.700;38.270;2023-01-26T00:03:16;100519.97;;;-2.17;70.78
55347;BME280;41218;55.700;38.270;2023-01-26T00:08:17;100522.69;;;-2.17;70.63
55347;BME280;41218;55.700;38.270;2023-01-26T00:13:17;100526.78;;;-2.15;70.71
55347;BME280;41218;55.700;38.270;2023-01-26T00:18:18;100526.78;;;-2.15;70.48
55347;BME280;41218;55.700;38.270;2023-01-26T00:23:19;100520.78;;;-2.22;70.50
55347;BME280;41218;55.700;38.270;2023-01-26T00:28:20;100518.88;;;-2.22;70.87
55347;BME280;41218;55.700;38.270;2023-01-26T00:33:20;100507.53;;;-2.18;70.99
55347;BME280;41218;55.700;38.270;2023-01-26T00:38:21;100511.59;;;-2.16;70.84
55347;BME280;41218;55.700;38.270;2023-01-26T00:43:21;100517.53;;;-2.19;70.68
55347;BME280;41218;55.700;38.270;2023-01-26T00:48:22;100498.88;;;-2.20;70.65
55347;BME280;41218;55.700;38.270;2023-01-26T00:53:23;100499.97;;;-2.16;70.43
55347;BME280;41218;55.700;38.270;2023-01-26T00:58:23;100487.78;;;-2.14;70.92
55347;BME280;41218;55.700;38.270;2023-01-26T01:03:23;100487.50;;;-2.12;70.99
55347;BME280;41218;55.700;38.270;2023-01-26T01:08:24;100492.13;;;-2.08;70.53
55347;BME280;41218;55.700;38.270;2023-01-26T01:13:25;100480.47;;;-2.08;70.97
55347;BME280;41218;55.700;38.270;2023-01-26T01:18:25;100468.81;;;-2.14;70.96
55347;BME280;41218;55.700;38.270;2023-01-26T01:23:29;100471.22;;;-2.17;70.78
55347;BME280;41218;55.700;38.270;2023-01-26T01:28:30;100488.03;;;-2.15;70.90
55347;BME280;41218;55.700;38.270;2023-01-26T01:33:30;100472.88;;;-2.16;70.94
55347;BME280;41218;55.700;38.270;2023-01-26T01:38:31;100474.78;;;-2.12;70.65
55347;BME280;41218;55.700;38.270;2023-01-26T01:43:32;100471.00;;;-2.11;70.82
55347;BME280;41218;55.700;38.270;2023-01-26T01:53:53;100461.50;;;-2.18;71.10
55347;BME280;41218;55.700;38.270;2023-01-26T01:58:57;100462.88;;;-2.11;70.54
55347;BME280;41218;55.700;38.270;2023-01-26T02:04:01;100462.88;;;-2.11;71.08
55347;BME280;41218;55.700;38.270;2023-01-26T02:09:04;100475.31;;;-2.10;70.88
55347;BME280;41218;55.700;38.270;2023-01-26T02:14:07;100461.50;;;-2.13;70.74
55347;BME280;41218;55.700;38.270;2023-01-26T02:19:35;100466.34;;;-2.15;70.92
55347;BME280;41218;55.700;38.270;2023-01-26T02:24:41;100444.38;;;-2.29;70.76
55347;BME280;41218;55.700;38.270;2023-01-26T02:29:42;100471.25;;;-2.07;70.99
55347;BME280;41218;55.700;38.270;2023-01-26T02:34:42;100450.94;;;-2.15;70.27
55347;BME280;41218;55.700;38.270;2023-01-26T02:39:48;100445.22;;;-2.13;70.87
55347;BME280;41218;55.700;38.270;2023-01-26T02:44:52;100449.84;;;-2.14;70.70
55347;BME280;41218;55.700;38.270;2023-01-26T02:49:53;100448.22;;;-2.15;70.37
55347;BME280;41218;55.700;38.270;2023-01-26T02:54:54;100429.28;;;-2.15;70.33
55347;BME280;41218;55.700;38.270;2023-01-26T03:00:17;100425.72;;;-2.15;70.31
55347;BME280;41218;55.700;38.270;2023-01-26T03:05:18;100411.91;;;-2.24;70.62
55347;BME280;41218;55.700;38.270;2023-01-26T03:10:19;100423.03;;;-2.20;70.64
55347;BME280;41218;55.700;38.270;2023-01-26T03:15:21;100437.13;;;-2.18;70.08
55347;BME280;41218;55.700;38.270;2023-01-26T03:20:41;100427.91;;;-2.17;70.68
55347;BME280;41218;55.700;38.270;2023-01-26T03:26:00;100424.63;;;-2.19;70.42
55347;BME280;41218;55.700;38.270;2023-01-26T03:31:20;100425.44;;;-2.19;70.60
55347;BME280;41218;55.700;38.270;2023-01-26T03:36:20;100417.31;;;-2.19;70.39
55347;BME280;41218;55.700;38.270;2023-01-26T03:41:21;100422.19;;;-2.21;70.54
55347;BME280;41218;55.700;38.270;2023-01-26T03:46:40;100423.56;;;-2.24;70.43
55347;BME280;41218;55.700;38.270;2023-01-26T03:51:59;100408.91;;;-2.28;70.43
55347;BME280;41218;55.700;38.270;2023-01-26T03:57:18;100425.19;;;-2.23;70.23
55347;BME280;41218;55.700;38.270;2023-01-26T04:02:18;100423.56;;;-2.24;70.24
55347;BME280;41218;55.700;38.270;2023-01-26T04:07:38;100402.97;;;-2.30;70.17
55347;BME280;41218;55.700;38.270;2023-01-26T04:12:57;100421.66;;;-2.28;70.36
55347;BME280;41218;55.700;38.270;2023-01-26T04:18:16;100419.22;;;-2.30;70.59
55347;BME280;41218;55.700;38.270;2023-01-26T04:23:35;100409.19;;;-2.29;70.38
55347;BME280;41218;55.700;38.270;2023-01-26T04:28:36;100394.56;;;-2.38;70.28
55347;BME280;41218;55.700;38.270;2023-01-26T04:33:37;100420.28;;;-2.26;70.65
55347;BME280;41218;55.700;38.270;2023-01-26T04:38:38;100423.81;;;-2.25;70.07
55347;BME280;41218;55.700;38.270;2023-01-26T04:43:38;100420.03;;;-2.34;70.13
55347;BME280;41218;55.700;38.270;2023-01-26T04:48:39;100415.16;;;-2.32;70.38
55347;BME280;41218;55.700;38.270;2023-01-26T04:53:39;100398.88;;;-2.43;70.12
55347;BME280;41218;55.700;38.270;2023-01-26T04:58:40;100422.19;;;-2.31;70.27
55347;BME280;41218;55.700;38.270;2023-01-26T05:03:40;100418.66;;;-2.32;70.40
55347;BME280;41218;55.700;38.270;2023-01-26T05:08:41;100395.91;;;-2.41;70.25
55347;BME280;41218;55.700;38.270;2023-01-26T05:13:42;100412.69;;;-2.34;70.14
55347;BME280;41218;55.700;38.270;2023-01-26T05:18:42;100406.75;;;-2.41;70.21
55347;BME280;41218;55.700;38.270;2023-01-26T05:23:43;100413.50;;;-2.33;70.32
55347;BME280;41218;55.700;38.270;2023-01-26T05:28:44;100410.25;;;-2.35;70.48
55347;BME280;41218;55.700;38.270;2023-01-26T05:33:44;100407.03;;;-2.32;70.21
55347;BME280;41218;55.700;38.270;2023-01-26T05:38:45;100408.63;;;-2.36;70.29
55347;BME280;41218;55.700;38.270;2023-01-26T05:43:46;100405.66;;;-2.30;70.47
55347;BME280;41218;55.700;38.270;2023-01-26T05:48:46;100412.44;;;-2.32;70.08
55347;BME280;41218;55.700;38.270;2023-01-26T05:53:47;100420.56;;;-2.32;70.32
55347;BME280;41218;55.700;38.270;2023-01-26T05:58:47;100420.28;;;-2.36;70.48
55347;BME280;41218;55.700;38.270;2023-01-26T06:03:48;100422.72;;;-2.34;70.47
55347;BME280;41218;55.700;38.270;2023-01-26T06:08:48;100411.09;;;-2.30;70.26
55347;BME280;41218;55.700;38.270;2023-01-26T06:13:49;100397.56;;;-2.35;70.32
55347;BME280;41218;55.700;38.270;2023-01-26T06:18:49;100390.78;;;-2.32;69.84
55347;BME280;41218;55.700;38.270;2023-01-26T06:23:50;100381.31;;;-2.30;70.08
55347;BME280;41218;55.700;38.270;2023-01-26T06:28:54;100393.22;;;-2.26;70.33
55347;BME280;41218;55.700;38.270;2023-01-26T06:33:54;100388.06;;;-2.27;70.49
55347;BME280;41218;55.700;38.270;2023-01-26T06:38:55;100394.06;;;-2.15;69.74
55347;BME280;41218;55.700;38.270;2023-01-26T06:43:55;100411.94;;;-2.14;69.82
55347;BME280;41218;55.700;38.270;2023-01-26T06:48:56;100400.28;;;-2.14;69.84
55347;BME280;41218;55.700;38.270;2023-01-26T06:53:57;100394.59;;;-2.18;69.80
55347;BME280;41218;55.700;38.270;2023-01-26T06:58:58;100407.34;;;-2.08;70.08
55347;BME280;41218;55.700;38.270;2023-01-26T07:03:58;100399.22;;;-2.08;70.04
55347;BME280;41218;55.700;38.270;2023-01-26T07:08:58;100402.44;;;-2.01;69.69
55347;BME280;41218;55.700;38.270;2023-01-26T07:13:59;100400.03;;;-1.97;69.76
55347;BME280;41218;55.700;38.270;2023-01-26T07:19:00;100391.88;;;-1.97;69.82
55347;BME280;41218;55.700;38.270;2023-01-26T07:24:00;100390.53;;;-1.90;69.88
55347;BME280;41218;55.700;38.270;2023-01-26T07:29:01;100389.47;;;-1.94;69.57
55347;BME280;41218;55.700;38.270;2023-01-26T07:34:01;100395.16;;;-1.85;69.70
55347;BME280;41218;55.700;38.270;2023-01-26T07:39:02;100383.22;;;-1.84;69.75
55347;BME280;41218;55.700;38.270;2023-01-26T07:44:03;100385.94;;;-1.79;69.57
55347;BME280;41218;55.700;38.270;2023-01-26T07:49:07;100371.84;;;-1.76;69.55
55347;BME280;41218;55.700;38.270;2023-01-26T07:54:10;100382.13;;;-1.73;69.44
55347;BME280;41218;55.700;38.270;2023-01-26T07:59:12;100386.47;;;-1.67;69.58
55347;BME280;41218;55.700;38.270;2023-01-26T08:04:12;100378.59;;;-1.63;69.28
55347;BME280;41218;55.700;38.270;2023-01-26T08:09:13;100382.41;;;-1.64;69.51
55347;BME280;41218;55.700;38.270;2023-01-26T08:14:13;100377.00;;;-1.64;69.46
55347;BME280;41218;55.700;38.270;2023-01-26T08:19:14;100366.41;;;-1.66;69.25
55347;BME280;41218;55.700;38.270;2023-01-26T08:24:14;100370.47;;;-1.63;69.37
55347;BME280;41218;55.700;38.270;2023-01-26T08:29:15;100361.78;;;-1.65;69.38
55347;BME280;41218;55.700;38.270;2023-01-26T08:34:15;100347.72;;;-1.62;69.39
55347;BME280;41218;55.700;38.270;2023-01-26T08:39:16;100353.91;;;-1.51;69.42
55347;BME280;41218;55.700;38.270;2023-01-26T08:44:16;100354.72;;;-1.51;69.58
55347;BME280;41218;55.700;38.270;2023-01-26T08:49:17;100350.09;;;-1.45;69.18
55347;BME280;41218;55.700;38.270;2023-01-26T08:54:17;100351.44;;;-1.37;69.12
55347;BME280;41218;55.700;38.270;2023-01-26T08:59:18;100352.53;;;-1.33;69.00
55347;BME280;41218;55.700;38.270;2023-01-26T09:04:18;100346.78;;;-1.32;69.13
55347;BME280;41218;55.700;38.270;2023-01-26T09:09:19;100355.75;;;-1.31;68.73
55347;BME280;41218;55.700;38.270;2023-01-26T09:14:19;100358.19;;;-1.25;69.14
55347;BME280;41218;55.700;38.270;2023-01-26T09:19:20;100341.63;;;-1.28;69.00
55347;BME280;41218;55.700;38.270;2023-01-26T09:24:21;100329.19;;;-1.29;68.96
55347;BME280;41218;55.700;38.270;2023-01-26T09:29:21;100318.34;;;-1.29;68.70
55347;BME280;41218;55.700;38.270;2023-01-26T09:34:22;100334.84;;;-1.15;68.87
55347;BME280;41218;55.700;38.270;2023-01-26T09:39:24;100323.16;;;-1.16;69.07
55347;BME280;41218;55.700;38.270;2023-01-26T09:44:26;100314.47;;;-1.13;68.61
55347;BME280;41218;55.700;38.270;2023-01-26T09:54:45;100324.47;;;-1.03;68.60
55347;BME280;41218;55.700;38.270;2023-01-26T10:05:15;100322.53;;;-0.97;68.76
55347;BME280;41218;55.700;38.270;2023-01-26T10:10:29;100325.75;;;-0.95;68.43
55347;BME280;41218;55.700;38.270;2023-01-26T10:15:38;100317.34;;;-0.94;68.57
55347;BME280;41218;55.700;38.270;2023-01-26T10:20:45;100297.88;;;-1.06;68.68
55347;BME280;41218;55.700;38.270;2023-01-26T10:25:46;100304.91;;;-1.00;68.63
55347;BME280;41218;55.700;38.270;2023-01-26T10:30:50;100305.44;;;-0.98;68.68
55347;BME280;41218;55.700;38.270;2023-01-26T10:35:52;100306.00;;;-1.01;68.79
55347;BME280;41218;55.700;38.270;2023-01-26T10:40:54;100302.97;;;-0.94;68.68
55347;BME280;41218;55.700;38.270;2023-01-26T10:45:54;100291.31;;;-0.95;69.00
55347;BME280;41218;55.700;38.270;2023-01-26T10:51:13;100282.06;;;-0.94;68.79
55347;BME280;41218;55.700;38.270;2023-01-26T10:56:15;100275.56;;;-0.93;68.77
55347;BME280;41218;55.700;38.270;2023-01-26T11:01:16;100268.25;;;-0.97;68.82
55347;BME280;41218;55.700;38.270;2023-01-26T11:06:17;100259.50;;;-0.89;68.63
55347;BME280;41218;55.700;38.270;2023-01-26T11:11:26;100257.38;;;-0.87;68.94
55347;BME280;41218;55.700;38.270;2023-01-26T11:16:26;100246.50;;;-0.87;68.92
55347;BME280;41218;55.700;38.270;2023-01-26T11:21:34;100245.66;;;-0.83;68.77
55347;BME280;41218;55.700;38.270;2023-01-26T11:48:35;100239.94;;;-0.81;68.73
55347;BME280;41218;55.700;38.270;2023-01-26T12:04:00;100222.56;;;-0.80;68.72
55347;BME280;41218;55.700;38.270;2023-01-26T12:19:27;100223.88;;;-0.72;68.47
55347;BME280;41218;55.700;38.270;2023-01-26T12:24:40;100218.97;;;-0.75;68.59
55347;BME280;41218;55.700;38.270;2023-01-26T12:29:53;100198.97;;;-0.85;68.69
55347;BME280;41218;55.700;38.270;2023-01-26T12:34:57;100214.59;;;-0.71;68.82
55347;BME280;41218;55.700;38.270;2023-01-26T12:40:42;100227.09;;;-0.70;68.98
55347;BME280;41218;55.700;38.270;2023-01-26T12:45:46;100221.69;;;-0.75;68.42
55347;BME280;41218;55.700;38.270;2023-01-26T12:50:53;100228.19;;;-0.71;68.66
55347;BME280;41218;55.700;38.270;2023-01-26T13:01:09;100221.94;;;-0.72;69.23
55347;BME280;41218;55.700;38.270;2023-01-26T13:16:40;100230.63;;;-0.70;69.00
55347;BME280;41218;55.700;38.270;2023-01-26T13:21:42;100237.44;;;-0.72;69.15
55347;BME280;41218;55.700;38.270;2023-01-26T13:26:44;100236.31;;;-0.66;69.15
55347;BME280;41218;55.700;38.270;2023-01-26T13:31:45;100242.81;;;-0.67;69.05
55347;BME280;41218;55.700;38.270;2023-01-26T13:36:47;100233.09;;;-0.73;69.27
55347;BME280;41218;55.700;38.270;2023-01-26T13:41:49;100235.06;;;-0.79;69.10
55347;BME280;41218;55.700;38.270;2023-01-26T13:46:54;100238.81;;;-0.75;69.30
55347;BME280;41218;55.700;38.270;2023-01-26T13:51:56;100235.53;;;-0.72;69.37
55347;BME280;41218;55.700;38.270;2023-01-26T14:01:59;100225.53;;;-0.76;69.41
55347;BME280;41218;55.700;38.270;2023-01-26T14:07:03;100230.94;;;-0.76;69.30
55347;BME280;41218;55.700;38.270;2023-01-26T14:12:05;100238.00;;;-0.75;69.25
55347;BME280;41218;55.700;38.270;2023-01-26T14:17:23;100235.84;;;-0.78;69.28
55347;BME280;41218;55.700;38.270;2023-01-26T14:22:26;100225.00;;;-0.84;69.53
55347;BME280;41218;55.700;38.270;2023-01-26T14:27:36;100232.63;;;-0.81;69.59
55347;BME280;41218;55.700;38.270;2023-01-26T14:32:37;100229.38;;;-0.83;69.57
55347;BME280;41218;55.700;38.270;2023-01-26T14:37:38;100237.22;;;-0.81;69.38
55347;BME280;41218;55.700;38.270;2023-01-26T14:42:39;100225.53;;;-0.82;69.96
55347;BME280;41218;55.700;38.270;2023-01-26T14:47:40;100232.63;;;-0.81;69.29
55347;BME280;41218;55.700;38.270;2023-01-26T14:52:43;100233.41;;;-0.80;69.76
55347;BME280;41218;55.700;38.270;2023-01-26T14:57:44;100220.44;;;-0.83;69.92
55347;BME280;41218;55.700;38.270;2023-01-26T15:02:47;100207.94;;;-0.84;69.82
55347;BME280;41218;55.700;38.270;2023-01-26T15:08:03;100216.34;;;-0.86;69.93
55347;BME280;41218;55.700;38.270;2023-01-26T15:13:15;100211.53;;;-0.94;70.14
55347;BME280;41218;55.700;38.270;2023-01-26T15:18:19;100218.00;;;-0.90;69.81
55347;BME280;41218;55.700;38.270;2023-01-26T15:23:35;100208.53;;;-0.92;70.14
55347;BME280;41218;55.700;38.270;2023-01-26T15:28:36;100204.72;;;-0.91;70.10
55347;BME280;41218;55.700;38.270;2023-01-26T15:38:38;100216.09;;;-0.89;69.76
55347;BME280;41218;55.700;38.270;2023-01-26T15:43:39;100204.50;;;-0.95;70.09
55347;BME280;41218;55.700;38.270;2023-01-26T15:48:39;100208.53;;;-0.92;70.12
55347;BME280;41218;55.700;38.270;2023-01-26T15:53:40;100205.00;;;-0.93;70.11
55347;BME280;41218;55.700;38.270;2023-01-26T15:58:41;100195.84;;;-1.02;70.08
55347;BME280;41218;55.700;38.270;2023-01-26T16:03:41;100192.00;;;-0.96;70.24
55347;BME280;41218;55.700;38.270;2023-01-26T16:08:42;100189.59;;;-1.03;70.23
55347;BME280;41218;55.700;38.270;2023-01-26T16:13:42;100187.16;;;-1.04;70.25
55347;BME280;41218;55.700;38.270;2023-01-26T16:18:44;100176.38;;;-1.09;70.31
55347;BME280;41218;55.700;38.270;2023-01-26T16:23:46;100185.84;;;-1.07;70.65
55347;BME280;41218;55.700;38.270;2023-01-26T16:28:46;100182.53;;;-1.04;70.50
55347;BME280;41218;55.700;38.270;2023-01-26T16:33:48;100183.13;;;-1.07;70.44
55347;BME280;41218;55.700;38.270;2023-01-26T16:38:49;100184.72;;;-1.06;70.54
55347;BME280;41218;55.700;38.270;2023-01-26T16:43:49;100190.41;;;-1.02;70.36
55347;BME280;41218;55.700;38.270;2023-01-26T16:48:53;100187.97;;;-1.04;70.33
55347;BME280;41218;55.700;38.270;2023-01-26T16:53:54;100192.66;;;-1.09;70.15
55347;BME280;41218;55.700;38.270;2023-01-26T16:58:54;100199.94;;;-1.10;70.67
55347;BME280;41218;55.700;38.270;2023-01-26T17:03:55;100194.81;;;-1.11;70.46
55347;BME280;41218;55.700;38.270;2023-01-26T17:08:56;100190.00;;;-1.19;70.71
55347;BME280;41218;55.700;38.270;2023-01-26T17:13:56;100200.84;;;-1.19;70.17
55347;BME280;41218;55.700;38.270;2023-01-26T17:18:58;100198.16;;;-1.25;70.57
55347;BME280;41218;55.700;38.270;2023-01-26T17:23:59;100185.69;;;-1.26;70.86
55347;BME280;41218;55.700;38.270;2023-01-26T17:28:59;100194.91;;;-1.27;71.01
55347;BME280;41218;55.700;38.270;2023-01-26T17:34:00;100187.38;;;-1.35;70.69
55347;BME280;41218;55.700;38.270;2023-01-26T17:39:01;100195.47;;;-1.30;70.87
55347;BME280;41218;55.700;38.270;2023-01-26T17:44:02;100196.56;;;-1.31;71.10
55347;BME280;41218;55.700;38.270;2023-01-26T17:49:03;100197.09;;;-1.29;70.97
55347;BME280;41218;55.700;38.270;2023-01-26T17:54:05;100189.28;;;-1.35;70.73
55347;BME280;41218;55.700;38.270;2023-01-26T17:59:06;100205.50;;;-1.30;70.81
55347;BME280;41218;55.700;38.270;2023-01-26T18:04:07;100192.50;;;-1.33;71.04
55347;BME280;41218;55.700;38.270;2023-01-26T18:09:08;100183.53;;;-1.34;71.07
55347;BME280;41218;55.700;38.270;2023-01-26T18:14:09;100189.28;;;-1.35;71.09
55347;BME280;41218;55.700;38.270;2023-01-26T18:19:10;100184.91;;;-1.36;71.05
55347;BME280;41218;55.700;38.270;2023-01-26T18:24:10;100193.63;;;-1.39;71.05
55347;BME280;41218;55.700;38.270;2023-01-26T18:29:11;100184.97;;;-1.42;71.24
55347;BME280;41218;55.700;38.270;2023-01-26T18:34:12;100168.97;;;-1.48;71.26
55347;BME280;41218;55.700;38.270;2023-01-26T18:39:14;100177.38;;;-1.45;71.43
55347;BME280;41218;55.700;38.270;2023-01-26T18:44:16;100173.31;;;-1.47;71.33
55347;BME280;41218;55.700;38.270;2023-01-26T18:49:17;100167.91;;;-1.52;71.38
55347;BME280;41218;55.700;38.270;2023-01-26T18:54:18;100164.13;;;-1.51;71.41
55347;BME280;41218;55.700;38.270;2023-01-26T18:59:19;100173.34;;;-1.52;71.49
55347;BME280;41218;55.700;38.270;2023-01-26T19:04:19;100176.34;;;-1.54;71.55
55347;BME280;41218;55.700;38.270;2023-01-26T19:09:20;100165.78;;;-1.55;71.42
55347;BME280;41218;55.700;38.270;2023-01-26T19:14:21;100166.06;;;-1.57;71.49
55347;BME280;41218;55.700;38.270;2023-01-26T19:19:22;100161.69;;;-1.53;71.16
55347;BME280;41218;55.700;38.270;2023-01-26T19:24:23;100167.44;;;-1.59;71.31
55347;BME280;41218;55.700;38.270;2023-01-26T19:29:24;100161.47;;;-1.62;71.53
55347;BME280;41218;55.700;38.270;2023-01-26T19:34:24;100165.25;;;-1.57;71.32
55347;BME280;41218;55.700;38.270;2023-01-26T19:39:27;100168.81;;;-1.62;71.51
55347;BME280;41218;55.700;38.270;2023-01-26T19:44:28;100162.59;;;-1.68;71.58
55347;BME280;41218;55.700;38.270;2023-01-26T19:49:28;100161.47;;;-1.67;71.91
55347;BME280;41218;55.700;38.270;2023-01-26T19:54:28;100150.63;;;-1.67;71.54
55347;BME280;41218;55.700;38.270;2023-01-26T19:59:29;100142.56;;;-1.72;71.62
55347;BME280;41218;55.700;38.270;2023-01-26T20:04:30;100145.00;;;-1.75;71.35
55347;BME280;41218;55.700;38.270;2023-01-26T20:09:31;100151.78;;;-1.78;72.02
55347;BME280;41218;55.700;38.270;2023-01-26T20:14:32;100139.03;;;-1.72;71.61
55347;BME280;41218;55.700;38.270;2023-01-26T20:19:33;100150.16;;;-1.74;72.00
55347;BME280;41218;55.700;38.270;2023-01-26T20:24:35;100143.69;;;-1.83;71.50
55347;BME280;41218;55.700;38.270;2023-01-26T20:29:35;100152.84;;;-1.74;71.83
55347;BME280;41218;55.700;38.270;2023-01-26T20:34:36;100152.59;;;-1.72;71.50
55347;BME280;41218;55.700;38.270;2023-01-26T20:39:41;100134.47;;;-1.87;71.43
55347;BME280;41218;55.700;38.270;2023-01-26T20:44:45;100156.38;;;-1.78;71.64
55347;BME280;41218;55.700;38.270;2023-01-26T20:49:46;100151.00;;;-1.84;71.79
55347;BME280;41218;55.700;38.270;2023-01-26T20:54:46;100143.41;;;-1.82;71.66
55347;BME280;41218;55.700;38.270;2023-01-26T20:59:47;100148.78;;;-1.76;71.84
55347;BME280;41218;55.700;38.270;2023-01-26T21:04:47;100148.50;;;-1.75;71.48
55347;BME280;41218;55.700;38.270;2023-01-26T21:09:48;100138.53;;;-1.85;71.41
55347;BME280;41218;55.700;38.270;2023-01-26T21:14:48;100133.09;;;-1.85;71.33
55347;BME280;41218;55.700;38.270;2023-01-26T21:19:49;100138.81;;;-1.86;71.78
55347;BME280;41218;55.700;38.270;2023-01-26T21:24:49;100140.47;;;-1.90;71.60
55347;BME280;41218;55.700;38.270;2023-01-26T21:29:50;100136.13;;;-1.91;71.76
55347;BME280;41218;55.700;38.270;2023-01-26T21:34:50;100130.69;;;-1.91;71.63
55347;BME280;41218;55.700;38.270;2023-01-26T21:39:51;100132.88;;;-1.88;71.50
55347;BME280;41218;55.700;38.270;2023-01-26T21:44:51;100135.84;;;-1.90;71.77
55347;BME280;41218;55.700;38.270;2023-01-26T21:50:15;100136.38;;;-1.88;71.85
55347;BME280;41218;55.700;38.270;2023-01-26T21:55:36;100128.81;;;-1.91;72.12
55347;BME280;41218;55.700;38.270;2023-01-26T22:00:36;100136.94;;;-1.91;71.91
55347;BME280;41218;55.700;38.270;2023-01-26T22:05:38;100148.56;;;-1.85;71.59
55347;BME280;41218;55.700;38.270;2023-01-26T22:10:39;100140.47;;;-1.90;71.67
55347;BME280;41218;55.700;38.270;2023-01-26T22:15:39;100139.38;;;-1.89;71.63
55347;BME280;41218;55.700;38.270;2023-01-26T22:20:40;100146.41;;;-1.88;71.95
55347;BME280;41218;55.700;38.270;2023-01-26T22:25:40;100146.94;;;-1.86;71.67
55347;BME280;41218;55.700;38.270;2023-01-26T22:30:41;100143.97;;;-1.90;71.84
55347;BME280;41218;55.700;38.270;2023-01-26T22:35:42;100137.50;;;-1.94;71.90
55347;BME280;41218;55.700;38.270;2023-01-26T22:40:43;100139.41;;;-1.94;72.01
55347;BME280;41218;55.700;38.270;2023-01-26T22:45:44;100139.41;;;-1.94;71.47
55347;BME280;41218;55.700;38.270;2023-01-26T22:50:45;100129.91;;;-1.92;71.72
55347;BME280;41218;55.700;38.270;2023-01-26T22:55:50;100134.22;;;-1.91;71.33
55347;BME280;41218;55.700;38.270;2023-01-26T23:00:53;100137.22;;;-1.97;71.96
55347;BME280;41218;55.700;38.270;2023-01-26T23:05:58;100119.94;;;-2.07;71.78
55347;BME280;41218;55.700;38.270;2023-01-26T23:11:05;100137.50;;;-1.99;71.85
55347;BME280;41218;55.700;38.270;2023-01-26T23:16:06;100120.75;;;-2.11;71.86
55347;BME280;41218;55.700;38.270;2023-01-26T23:21:07;100121.59;;;-2.11;71.91
55347;BME280;41218;55.700;38.270;2023-01-26T23:26:08;100141.59;;;-2.02;71.60
55347;BME280;41218;55.700;38.270;2023-01-26T23:31:10;100139.13;;;-2.03;71.51
55347;BME280;41218;55.700;38.270;2023-01-26T23:36:12;100139.44;;;-2.10;71.50
55347;BME280;41218;55.700;38.270;2023-01-26T23:41:13;100132.38;;;-2.06;71.52
55347;BME280;41218;55.700;38.270;2023-01-26T23:46:13;100138.91;;;-2.07;71.62
55347;BME280;41218;55.700;38.270;2023-01-26T23:51:14;100145.97;;;-2.11;71.72
55347;BME280;41218;55.700;38.270;2023-01-26T23:56:15;100135.94;;;-2.10;72.03
